Time;durP1;ratioP1;P1;durP2;ratioP2;P2;SDS_P1;SDS_P2;PMS_P1;PMS_P2;Temp;Humidity;BMP_temperature;BMP_pressure;BME280_temperature;BME280_humidity;BME280_pressure;Samples;Min_cycle;Max_cycle;Signal;HPM_P1;HPM_P2
2022/08/04 00:02:14;;;;;;;5.47;1.20;;;;;;;;;;5081661;28;20017;-65
2022/08/04 00:05:08;;;;;;;6.03;1.20;;;;;;;;;;5085527;28;20027;-65
2022/08/04 00:07:52;;;;;;;4.93;1.30;;;;;;;;;;5062453;28;20032;-65
2022/08/04 00:10:19;;;;;;;5.65;1.60;;;;;;;;;;5080943;28;20020;-65
2022/08/04 00:12:46;;;;;;;6.35;1.05;;;;;;;;;;5078705;28;20447;-65
2022/08/04 00:15:13;;;;;;;8.38;1.52;;;;;;;;;;5086631;28;20095;-65
2022/08/04 00:17:40;;;;;;;4.97;1.75;;;;;;;;;;5085548;28;20027;-65
2022/08/04 00:20:08;;;;;;;5.80;1.55;;;;;;;;;;5081224;28;20053;-65
2022/08/04 00:22:33;;;;;;;6.32;1.20;;;;;;;;;;5085686;28;20028;-65
2022/08/04 00:25:01;;;;;;;3.70;1.35;;;;;;;;;;5089032;28;20058;-65
2022/08/04 00:27:28;;;;;;;4.35;1.65;;;;;;;;;;5091100;28;20016;-65
2022/08/04 00:29:53;;;;;;;7.82;1.25;;;;;;;;;;5084712;28;20020;-65
2022/08/04 00:32:18;;;;;;;6.53;1.92;;;;;;;;;;5089597;28;20042;-65
2022/08/04 00:34:44;;;;;;;5.77;1.70;;;;;;;;;;5080037;28;20508;-65
2022/08/04 00:37:09;;;;;;;6.25;1.75;;;;;;;;;;5089325;28;20701;-65
2022/08/04 00:39:35;;;;;;;6.28;2.17;;;;;;;;;;5086093;28;20058;-65
2022/08/04 00:42:19;;;;;;;4.72;1.55;;;;;;;;;;5091636;28;20023;-65
2022/08/04 00:44:44;;;;;;;13.18;1.95;;;;;;;;;;5087680;28;20544;-65
2022/08/04 00:47:17;;;;;;;8.43;1.80;;;;;;;;;;5066327;28;20043;-65
2022/08/04 00:50:03;;;;;;;7.45;1.77;;;;;;;;;;5082375;28;20055;-65
2022/08/04 00:52:44;;;;;;;8.68;2.00;;;;;;;;;;5084411;28;20036;-65
2022/08/04 00:55:19;;;;;;;5.78;1.55;;;;;;;;;;5081641;28;20016;-65
2022/08/04 00:58:03;;;;;;;5.47;1.42;;;;;;;;;;5090024;28;20031;-65
2022/08/04 01:00:37;;;;;;;6.28;1.80;;;;;;;;;;5082124;28;20073;-65
2022/08/04 01:03:05;;;;;;;7.50;2.03;;;;;;;;;;5088767;28;20111;-65
2022/08/04 01:05:30;;;;;;;7.63;1.67;;;;;;;;;;5084746;28;20016;-65
2022/08/04 01:07:55;;;;;;;8.77;2.70;;;;;;;;;;5090104;28;20476;-65
2022/08/04 01:10:36;;;;;;;14.13;1.90;;;;;;;;;;5075810;28;20027;-65
2022/08/04 01:13:13;;;;;;;6.13;1.73;;;;;;;;;;5089940;28;20266;-65
2022/08/04 01:15:43;;;;;;;5.40;1.60;;;;;;;;;;5078986;28;20047;-65
2022/08/04 01:18:08;;;;;;;;;;;;;;;;;;5086039;28;20062;-65
2022/08/04 01:20:41;;;;;;;7.38;1.77;;;;;;;;;;5081590;28;19915;-65
2022/08/04 01:23:19;;;;;;;8.13;2.25;;;;;;;;;;5083526;28;20370;-65
2022/08/04 01:26:04;;;;;;;5.50;1.80;;;;;;;;;;5081792;28;20032;-65
2022/08/04 01:28:47;;;;;;;4.47;1.38;;;;;;;;;;5082551;28;20016;-65
2022/08/04 01:31:21;;;;;;;7.95;1.88;;;;;;;;;;5087427;28;20379;-65
2022/08/04 01:33:47;;;;;;;7.28;1.85;;;;;;;;;;5086641;28;20051;-65
2022/08/04 01:36:12;;;;;;;6.63;1.80;;;;;;;;;;5088213;28;20472;-65
2022/08/04 01:38:38;;;;;;;8.85;2.22;;;;;;;;;;5085029;28;20468;-65
2022/08/04 01:41:13;;;;;;;9.60;1.98;;;;;;;;;;5086681;28;20431;-65
2022/08/04 01:43:39;;;;;;;4.55;1.48;;;;;;;;;;5086967;28;20578;-65
2022/08/04 01:46:05;;;;;;;9.50;1.98;;;;;;;;;;5087563;28;20110;-65
2022/08/04 01:48:30;;;;;;;4.47;2.03;;;;;;;;;;5087675;28;20100;-65
2022/08/04 01:50:57;;;;;;;8.25;2.17;;;;;;;;;;5085846;28;20024;-65
2022/08/04 01:53:23;;;;;;;8.50;1.63;;;;;;;;;;5087277;28;20016;-65
2022/08/04 01:55:51;;;;;;;7.93;1.67;;;;;;;;;;5083853;28;20027;-65
2022/08/04 01:58:19;;;;;;;6.93;3.00;;;;;;;;;;5084589;28;20492;-65
2022/08/04 02:00:49;;;;;;;9.35;2.10;;;;;;;;;;5086975;28;20423;-65
2022/08/04 02:03:14;;;;;;;;;;;;;;;;;;5085867;28;20016;-65
2022/08/04 02:05:41;;;;;;;10.90;2.03;;;;;;;;;;5086703;28;19908;-65
2022/08/04 02:08:13;;;;;;;7.18;2.70;;;;;;;;;;5078960;28;20028;-65
2022/08/04 02:10:41;;;;;;;7.15;2.50;;;;;;;;;;5087014;28;20134;-65
2022/08/04 02:13:13;;;;;;;5.35;2.30;;;;;;;;;;5081344;28;20016;-65
2022/08/04 02:15:49;;;;;;;8.60;2.58;;;;;;;;;;5086558;28;20114;-65
2022/08/04 02:18:20;;;;;;;12.63;3.25;;;;;;;;;;5081695;28;20468;-65
2022/08/04 02:20:47;;;;;;;11.18;2.58;;;;;;;;;;5081960;28;20099;-65
2022/08/04 02:23:21;;;;;;;8.43;2.40;;;;;;;;;;5084595;28;20028;-65
2022/08/04 02:25:50;;;;;;;5.55;2.50;;;;;;;;;;5073923;28;20027;-65
2022/08/04 02:28:29;;;;;;;4.68;2.10;;;;;;;;;;5084180;28;20479;-65
2022/08/04 02:30:54;;;;;;;7.90;2.45;;;;;;;;;;5086048;28;20024;-65
2022/08/04 02:33:23;;;;;;;4.00;1.63;;;;;;;;;;5089914;28;20027;-65
2022/08/04 02:35:52;;;;;;;5.65;1.80;;;;;;;;;;5077090;28;20020;-65
2022/08/04 02:38:26;;;;;;;11.70;2.53;;;;;;;;;;5085055;28;20024;-65
2022/08/04 02:40:52;;;;;;;7.50;2.30;;;;;;;;;;5074155;28;20036;-65
2022/08/04 02:43:18;;;;;;;7.60;2.55;;;;;;;;;;5089016;28;20024;-65
2022/08/04 02:45:44;;;;;;;6.82;2.53;;;;;;;;;;5085613;28;20024;-65
2022/08/04 02:48:10;;;;;;;5.15;2.83;;;;;;;;;;5082852;28;20032;-65
2022/08/04 02:50:36;;;;;;;9.55;2.22;;;;;;;;;;5074348;28;20625;-65
2022/08/04 02:53:02;;;;;;;8.98;2.40;;;;;;;;;;5088875;28;20014;-65
2022/08/04 02:55:28;;;;;;;5.53;2.25;;;;;;;;;;5084161;28;20022;-65
2022/08/04 02:57:54;;;;;;;6.32;1.92;;;;;;;;;;5071424;28;20111;-65
2022/08/04 03:00:20;;;;;;;12.00;2.67;;;;;;;;;;5079473;28;20102;-65
2022/08/04 03:02:45;;;;;;;5.65;2.55;;;;;;;;;;5087543;28;20102;-65
2022/08/04 03:05:15;;;;;;;5.77;2.57;;;;;;;;;;5078671;28;20032;-65
2022/08/04 03:07:51;;;;;;;5.28;2.45;;;;;;;;;;5085889;28;20618;-65
2022/08/04 03:10:17;;;;;;;5.07;3.10;;;;;;;;;;5076415;28;20078;-65
2022/08/04 03:12:53;;;;;;;5.03;2.25;;;;;;;;;;5078545;28;20017;-65
2022/08/04 03:15:29;;;;;;;4.20;2.33;;;;;;;;;;5078429;28;20073;-65
2022/08/04 03:17:54;;;;;;;6.40;2.63;;;;;;;;;;5087196;28;20065;-65
2022/08/04 03:20:38;;;;;;;4.80;2.35;;;;;;;;;;5079431;28;20438;-65
2022/08/04 03:23:03;;;;;;;5.85;2.17;;;;;;;;;;5082342;28;20051;-65
2022/08/04 03:25:28;;;;;;;15.13;3.33;;;;;;;;;;5089272;28;20028;-65
2022/08/04 03:28:13;;;;;;;7.15;2.42;;;;;;;;;;5082299;28;20638;-65
2022/08/04 03:30:56;;;;;;;10.88;2.22;;;;;;;;;;5080656;28;20061;-65
2022/08/04 03:33:22;;;;;;;6.03;2.88;;;;;;;;;;5079025;28;20633;-65
2022/08/04 03:35:50;;;;;;;5.50;2.63;;;;;;;;;;5087535;28;20081;-65
2022/08/04 03:38:35;;;;;;;6.05;3.05;;;;;;;;;;5076870;28;20008;-65
2022/08/04 03:41:19;;;;;;;8.13;2.95;;;;;;;;;;5085338;28;20066;-65
2022/08/04 03:43:50;;;;;;;4.95;2.35;;;;;;;;;;5086123;28;20107;-65
2022/08/04 03:46:33;;;;;;;5.13;2.30;;;;;;;;;;5081140;28;20069;-65
2022/08/04 03:48:59;;;;;;;6.55;2.55;;;;;;;;;;5084398;28;20039;-65
2022/08/04 03:54:49;;;;;;;5.40;2.42;;;;;;;;;;5086088;28;20311;-65
2022/08/04 03:57:17;;;;;;;6.75;3.03;;;;;;;;;;4989280;28;20042;-65
2022/08/04 04:00:03;;;;;;;6.10;2.65;;;;;;;;;;5057042;28;20040;-65
2022/08/04 04:02:37;;;;;;;13.43;3.33;;;;;;;;;;5085374;28;20063;-65
2022/08/04 04:05:02;;;;;;;11.30;3.45;;;;;;;;;;5090900;28;20044;-65
2022/08/04 04:07:34;;;;;;;21.10;4.30;;;;;;;;;;5091292;28;20055;-65
2022/08/04 04:10:15;;;;;;;20.35;4.07;;;;;;;;;;5082546;28;20031;-65
2022/08/04 04:12:56;;;;;;;9.93;3.65;;;;;;;;;;5088431;28;20119;-65
2022/08/04 04:15:30;;;;;;;23.73;4.55;;;;;;;;;;5083423;28;20016;-65
2022/08/04 04:18:14;;;;;;;18.65;3.10;;;;;;;;;;5091293;28;20016;-65
2022/08/04 04:20:48;;;;;;;9.98;3.47;;;;;;;;;;5090859;28;20024;-65
2022/08/04 04:23:32;;;;;;;13.18;2.55;;;;;;;;;;5085073;28;20085;-65
2022/08/04 04:26:12;;;;;;;46.38;4.85;;;;;;;;;;5084897;28;20020;-65
2022/08/04 04:28:38;;;;;;;;;;;;;;;;;;5087490;28;20117;-65
2022/08/04 04:31:16;;;;;;;25.75;3.92;;;;;;;;;;5086907;28;20026;-65
2022/08/04 04:33:52;;;;;;;15.13;2.70;;;;;;;;;;5099005;22;20411;-67
2022/08/04 04:36:32;;;;;;;7.38;2.90;;;;;;;;;;5083919;28;20021;-67
2022/08/04 04:39:01;;;;;;;6.43;2.63;;;;;;;;;;5083190;28;20368;-68
2022/08/04 04:41:45;;;;;;;8.27;2.50;;;;;;;;;;5088602;28;20020;-68
2022/08/04 04:44:22;;;;;;;14.07;3.30;;;;;;;;;;5076371;28;20036;-67
2022/08/04 04:46:54;;;;;;;11.90;3.42;;;;;;;;;;5069502;28;20020;-68
2022/08/04 04:49:24;;;;;;;15.43;2.70;;;;;;;;;;5062562;28;20020;-67
2022/08/04 04:51:49;;;;;;;;;;;;;;;;;;5068318;28;20017;-68
2022/08/04 04:54:27;;;;;;;14.40;2.75;;;;;;;;;;5064987;28;19912;-68
2022/08/04 04:56:59;;;;;;;6.78;2.83;;;;;;;;;;5066961;28;20452;-67
2022/08/04 04:59:27;;;;;;;6.03;2.80;;;;;;;;;;5065431;28;20032;-68
2022/08/04 05:02:05;;;;;;;6.32;2.28;;;;;;;;;;5062918;28;20021;-67
2022/08/04 05:05:05;;;;;;;10.60;2.60;;;;;;;;;;5062297;28;20026;-68
2022/08/04 05:07:57;;;;;;;9.35;2.88;;;;;;;;;;4971855;28;20410;-68
2022/08/04 05:10:25;;;;;;;10.23;3.78;;;;;;;;;;5061736;28;20037;-67
2022/08/04 05:12:55;;;;;;;14.15;2.80;;;;;;;;;;5066169;28;20376;-68
2022/08/04 05:15:21;;;;;;;7.18;2.25;;;;;;;;;;5059383;28;20022;-68
2022/08/04 05:17:49;;;;;;;9.15;2.38;;;;;;;;;;5068483;28;20026;-67
2022/08/04 05:20:40;;;;;;;6.15;2.90;;;;;;;;;;5061948;28;20017;-67
2022/08/04 05:23:17;;;;;;;6.10;3.10;;;;;;;;;;5053656;28;20035;-68
2022/08/04 05:25:45;;;;;;;7.72;3.85;;;;;;;;;;5067236;28;20066;-69
2022/08/04 05:28:23;;;;;;;8.43;3.20;;;;;;;;;;5058334;28;20082;-69
2022/08/04 05:30:50;;;;;;;7.32;3.30;;;;;;;;;;5064975;28;20052;-68
2022/08/04 05:33:17;;;;;;;7.22;2.47;;;;;;;;;;5060732;28;20024;-68
2022/08/04 05:35:45;;;;;;;9.13;2.95;;;;;;;;;;5068937;28;20028;-68
2022/08/04 05:38:15;;;;;;;7.88;2.72;;;;;;;;;;5063127;28;20033;-67
2022/08/04 05:40:42;;;;;;;6.53;2.58;;;;;;;;;;5059278;28;20513;-68
2022/08/04 05:43:08;;;;;;;4.15;2.63;;;;;;;;;;5057163;28;20028;-68
2022/08/04 05:45:34;;;;;;;5.32;2.72;;;;;;;;;;5057147;28;20017;-68
2022/08/04 05:48:02;;;;;;;6.43;2.60;;;;;;;;;;5062923;28;20115;-68
2022/08/04 05:50:29;;;;;;;7.35;2.70;;;;;;;;;;5052769;28;20098;-68
2022/08/04 05:52:54;;;;;;;11.32;3.75;;;;;;;;;;5057199;28;20027;-67
2022/08/04 05:55:20;;;;;;;8.38;2.90;;;;;;;;;;5059343;28;20107;-68
2022/08/04 05:57:47;;;;;;;3.90;2.58;;;;;;;;;;5057072;28;20485;-67
2022/08/04 06:00:12;;;;;;;8.20;3.22;;;;;;;;;;5065376;28;20009;-69
2022/08/04 06:02:38;;;;;;;4.10;2.45;;;;;;;;;;5065115;28;20538;-68
2022/08/04 06:05:04;;;;;;;16.92;3.03;;;;;;;;;;5065390;28;20051;-68
2022/08/04 06:07:29;;;;;;;4.78;2.33;;;;;;;;;;5060652;28;20471;-68
2022/08/04 06:09:55;;;;;;;9.07;2.60;;;;;;;;;;5061434;28;20107;-67
2022/08/04 06:12:22;;;;;;;7.72;3.05;;;;;;;;;;5062275;28;20384;-67
2022/08/04 06:14:49;;;;;;;8.48;2.95;;;;;;;;;;5066858;28;20560;-68
2022/08/04 06:17:21;;;;;;;5.38;2.78;;;;;;;;;;5059605;28;20107;-68
2022/08/04 06:19:48;;;;;;;4.93;2.78;;;;;;;;;;5067007;28;20047;-68
2022/08/04 06:22:13;;;;;;;9.27;2.75;;;;;;;;;;5069289;28;20261;-67
2022/08/04 06:24:40;;;;;;;11.73;2.80;;;;;;;;;;5061350;28;20112;-68
2022/08/04 06:27:06;;;;;;;10.85;2.60;;;;;;;;;;5064031;28;20024;-68
2022/08/04 06:29:37;;;;;;;3.90;2.33;;;;;;;;;;5064465;28;20017;-67
2022/08/04 06:32:12;;;;;;;6.20;2.63;;;;;;;;;;5061464;28;20465;-68
2022/08/04 06:34:38;;;;;;;7.65;2.47;;;;;;;;;;5058129;28;20035;-67
2022/08/04 06:37:05;;;;;;;3.58;2.03;;;;;;;;;;5064398;28;20024;-68
2022/08/04 06:39:30;;;;;;;12.25;2.42;;;;;;;;;;5060768;28;20017;-68
2022/08/04 06:41:56;;;;;;;4.75;3.13;;;;;;;;;;5063217;28;20601;-67
2022/08/04 06:44:22;;;;;;;9.40;2.00;;;;;;;;;;5066720;28;20051;-67
2022/08/04 06:46:47;;;;;;;7.78;2.33;;;;;;;;;;5062811;28;20028;-67
2022/08/04 06:49:13;;;;;;;5.43;2.20;;;;;;;;;;5058904;28;20028;-68
2022/08/04 06:51:38;;;;;;;4.30;1.88;;;;;;;;;;5065510;28;20028;-68
2022/08/04 06:54:04;;;;;;;5.72;2.35;;;;;;;;;;5063181;28;20040;-67
2022/08/04 06:56:30;;;;;;;3.15;2.00;;;;;;;;;;5059425;28;20485;-67
2022/08/04 06:58:56;;;;;;;3.38;1.70;;;;;;;;;;5063636;28;20472;-68
2022/08/04 07:01:23;;;;;;;5.53;1.73;;;;;;;;;;5061577;28;20393;-67
2022/08/04 07:03:48;;;;;;;9.88;2.55;;;;;;;;;;5059469;28;20046;-67
2022/08/04 07:06:14;;;;;;;5.00;2.05;;;;;;;;;;5057898;28;20578;-69
2022/08/04 07:08:39;;;;;;;3.85;2.50;;;;;;;;;;5061906;28;20028;-69
2022/08/04 07:11:05;;;;;;;6.20;2.05;;;;;;;;;;5058001;28;20226;-67
2022/08/04 07:13:31;;;;;;;6.28;2.22;;;;;;;;;;5067549;28;20019;-68
2022/08/04 07:15:57;;;;;;;3.85;2.08;;;;;;;;;;5059591;28;20362;-67
2022/08/04 07:18:22;;;;;;;4.22;1.85;;;;;;;;;;5057617;28;20378;-67
2022/08/04 07:20:48;;;;;;;7.32;2.10;;;;;;;;;;5060382;28;20021;-67
2022/08/04 07:23:20;;;;;;;8.32;2.70;;;;;;;;;;5059890;28;20526;-67
2022/08/04 07:25:53;;;;;;;6.90;2.25;;;;;;;;;;5060335;28;20033;-70
2022/08/04 07:28:18;;;;;;;3.40;1.67;;;;;;;;;;5068015;28;20027;-68
2022/08/04 07:30:44;;;;;;;7.43;2.03;;;;;;;;;;5065770;28;20032;-67
2022/08/04 07:33:09;;;;;;;4.60;1.70;;;;;;;;;;5066095;28;20024;-67
2022/08/04 07:35:36;;;;;;;7.10;2.22;;;;;;;;;;5069291;28;20056;-68
2022/08/04 07:38:01;;;;;;;4.55;1.92;;;;;;;;;;5068400;28;20020;-70
2022/08/04 07:40:27;;;;;;;5.37;2.27;;;;;;;;;;5069668;28;20024;-67
2022/08/04 07:42:52;;;;;;;10.93;2.00;;;;;;;;;;5062345;28;20283;-68
2022/08/04 07:45:19;;;;;;;4.07;2.00;;;;;;;;;;5066582;28;20073;-68
2022/08/04 07:47:44;;;;;;;7.00;2.67;;;;;;;;;;5062099;28;20109;-68
2022/08/04 07:50:11;;;;;;;2.20;1.65;;;;;;;;;;5066339;28;20123;-68
2022/08/04 07:52:37;;;;;;;17.42;2.50;;;;;;;;;;5063739;28;20017;-67
2022/08/04 07:55:03;;;;;;;3.45;2.20;;;;;;;;;;5065306;28;20035;-68
2022/08/04 07:57:28;;;;;;;3.70;2.05;;;;;;;;;;5062041;28;20021;-68
2022/08/04 07:59:53;;;;;;;3.95;2.33;;;;;;;;;;5065963;28;20031;-68
2022/08/04 08:02:19;;;;;;;3.13;1.90;;;;;;;;;;5065855;28;20423;-68
2022/08/04 08:04:45;;;;;;;2.83;2.00;;;;;;;;;;5066511;28;20078;-67
2022/08/04 08:07:10;;;;;;;4.15;1.92;;;;;;;;;;5066808;28;20042;-68
2022/08/04 08:09:36;;;;;;;7.40;1.95;;;;;;;;;;5051430;28;20446;-68
2022/08/04 08:12:01;;;;;;;6.00;1.70;;;;;;;;;;5068964;28;20099;-68
2022/08/04 08:14:27;;;;;;;7.05;2.72;;;;;;;;;;5063236;28;20369;-68
2022/08/04 08:16:52;;;;;;;5.38;1.70;;;;;;;;;;5065563;28;20024;-68
2022/08/04 08:19:17;;;;;;;5.05;1.92;;;;;;;;;;5070350;28;20070;-68
2022/08/04 08:21:48;;;;;;;8.83;1.60;;;;;;;;;;5064444;28;20021;-68
2022/08/04 08:24:13;;;;;;;9.18;2.00;;;;;;;;;;5069167;28;20017;-68
2022/08/04 08:26:39;;;;;;;10.18;1.95;;;;;;;;;;5067201;28;20028;-69
2022/08/04 08:29:04;;;;;;;10.32;2.10;;;;;;;;;;5067582;28;20023;-68
2022/08/04 08:31:30;;;;;;;7.33;2.77;;;;;;;;;;5069275;28;20020;-69
2022/08/04 08:33:55;;;;;;;5.15;1.70;;;;;;;;;;5060601;28;20297;-68
2022/08/04 08:36:28;;;;;;;3.05;1.63;;;;;;;;;;5060852;28;20016;-69
2022/08/04 08:38:56;;;;;;;5.80;1.70;;;;;;;;;;5069395;28;20357;-68
2022/08/04 08:41:30;;;;;;;5.10;2.00;;;;;;;;;;5063056;28;20036;-68
2022/08/04 08:44:01;;;;;;;3.38;2.20;;;;;;;;;;5065840;28;20107;-68
2022/08/04 08:46:29;;;;;;;3.88;1.88;;;;;;;;;;5064969;28;20389;-68
2022/08/04 08:48:59;;;;;;;3.13;2.10;;;;;;;;;;5063779;28;20021;-68
2022/08/04 08:51:43;;;;;;;10.27;2.42;;;;;;;;;;5061040;28;20036;-68
2022/08/04 08:54:11;;;;;;;3.63;1.90;;;;;;;;;;5066150;28;20055;-68
2022/08/04 08:56:36;;;;;;;6.35;1.80;;;;;;;;;;5061879;28;20091;-69
2022/08/04 08:59:22;;;;;;;9.73;2.03;;;;;;;;;;5044693;28;20044;-70
2022/08/04 09:01:53;;;;;;;3.85;2.00;;;;;;;;;;5062699;28;20020;-69
2022/08/04 09:04:37;;;;;;;5.15;1.83;;;;;;;;;;5061328;28;20421;-70
2022/08/04 09:07:12;;;;;;;4.03;1.67;;;;;;;;;;5065941;28;20021;-69
2022/08/04 09:10:07;;;;;;;6.20;2.05;;;;;;;;;;5062194;28;20040;-68
2022/08/04 09:12:36;;;;;;;3.25;1.90;;;;;;;;;;5024983;28;20041;-69
2022/08/04 09:15:04;;;;;;;5.95;1.70;;;;;;;;;;5062137;28;20028;-69
2022/08/04 09:17:34;;;;;;;5.10;1.75;;;;;;;;;;5062837;28;20083;-70
2022/08/04 09:20:08;;;;;;;10.05;1.92;;;;;;;;;;5063187;28;20070;-70
2022/08/04 09:22:53;;;;;;;5.65;1.80;;;;;;;;;;5070364;28;20306;-69
2022/08/04 09:25:24;;;;;;;2.70;1.85;;;;;;;;;;5063758;28;20013;-70
2022/08/04 09:27:49;;;;;;;2.75;1.95;;;;;;;;;;5069650;28;20044;-70
2022/08/04 09:30:17;;;;;;;5.70;1.67;;;;;;;;;;5068205;28;20075;-70
2022/08/04 09:32:58;;;;;;;13.93;2.08;;;;;;;;;;5057587;28;20069;-70
2022/08/04 09:35:29;;;;;;;9.25;2.65;;;;;;;;;;5063084;28;20024;-69
2022/08/04 09:38:10;;;;;;;7.22;2.28;;;;;;;;;;5064670;28;20017;-69
2022/08/04 09:40:42;;;;;;;10.80;1.80;;;;;;;;;;5042892;28;20513;-70
2022/08/04 09:43:12;;;;;;;11.57;1.90;;;;;;;;;;5057404;28;20031;-71
2022/08/04 09:45:41;;;;;;;5.70;1.73;;;;;;;;;;5060986;28;20048;-71
2022/08/04 09:48:11;;;;;;;5.32;1.63;;;;;;;;;;5063807;28;20013;-71
2022/08/04 09:50:44;;;;;;;12.07;1.88;;;;;;;;;;5063646;28;20039;-71
2022/08/04 09:53:12;;;;;;;6.55;1.42;;;;;;;;;;5067382;28;20111;-71
2022/08/04 09:55:44;;;;;;;9.25;2.35;;;;;;;;;;5061083;28;20021;-71
2022/08/04 09:58:28;;;;;;;7.30;1.95;;;;;;;;;;5063206;28;20059;-71
2022/08/04 10:01:01;;;;;;;3.78;1.25;;;;;;;;;;5060660;28;20029;-72
2022/08/04 10:03:30;;;;;;;5.20;1.98;;;;;;;;;;5066012;28;20089;-71
2022/08/04 10:05:55;;;;;;;6.75;1.90;;;;;;;;;;5061459;28;20021;-71
2022/08/04 10:08:32;;;;;;;22.00;2.22;;;;;;;;;;5058300;28;20680;-71
2022/08/04 10:11:22;;;;;;;12.15;2.25;;;;;;;;;;5063342;28;20029;-71
2022/08/04 10:13:56;;;;;;;10.38;1.75;;;;;;;;;;5064188;28;20028;-71
2022/08/04 10:16:33;;;;;;;7.43;1.58;;;;;;;;;;5062759;28;20442;-71
2022/08/04 10:19:01;;;;;;;7.85;2.20;;;;;;;;;;5058217;28;20025;-70
2022/08/04 10:21:45;;;;;;;7.30;1.90;;;;;;;;;;5064603;28;20017;-70
2022/08/04 10:24:34;;;;;;;6.03;1.73;;;;;;;;;;5061120;28;20124;-70
2022/08/04 10:27:06;;;;;;;10.48;2.33;;;;;;;;;;5035733;28;20037;-71
2022/08/04 10:29:45;;;;;;;8.38;2.10;;;;;;;;;;5065531;28;20031;-70
2022/08/04 10:32:13;;;;;;;7.63;2.50;;;;;;;;;;5066358;28;20036;-70
2022/08/04 10:34:43;;;;;;;8.70;2.85;;;;;;;;;;5095438;22;20056;-67
2022/08/04 10:37:08;;;;;;;;;;;;;;;;;;5100958;28;20490;-68
2022/08/04 10:39:41;;;;;;;6.00;1.60;;;;;;;;;;5107933;27;20301;-68
2022/08/04 10:42:06;;;;;;;9.68;2.13;;;;;;;;;;5102767;27;20070;-68
2022/08/04 10:44:31;;;;;;;2.83;1.90;;;;;;;;;;5099229;28;20027;-68
2022/08/04 10:46:59;;;;;;;10.40;2.03;;;;;;;;;;5101333;27;20395;-67
2022/08/04 10:49:28;;;;;;;8.50;1.50;;;;;;;;;;5102515;27;20036;-67
2022/08/04 10:52:04;;;;;;;10.10;2.40;;;;;;;;;;5100054;27;20032;-64
2022/08/04 10:54:46;;;;;;;6.63;1.75;;;;;;;;;;5092453;27;20024;-68
2022/08/04 10:57:30;;;;;;;4.47;1.27;;;;;;;;;;5087099;28;20414;-67
2022/08/04 11:00:01;;;;;;;8.20;1.80;;;;;;;;;;5098196;28;20020;-67
2022/08/04 11:02:29;;;;;;;4.85;1.90;;;;;;;;;;5103622;27;20478;-68
2022/08/04 11:05:13;;;;;;;10.35;2.03;;;;;;;;;;5103041;28;20031;-66
2022/08/04 11:07:40;;;;;;;13.18;1.70;;;;;;;;;;5096605;28;20032;-67
2022/08/04 11:10:06;;;;;;;6.38;2.15;;;;;;;;;;5099472;27;20069;-66
2022/08/04 11:12:33;;;;;;;7.05;1.60;;;;;;;;;;5103079;27;20019;-68
2022/08/04 11:15:00;;;;;;;5.22;1.95;;;;;;;;;;5093461;28;20024;-67
2022/08/04 11:17:28;;;;;;;7.85;1.50;;;;;;;;;;5096942;28;20049;-67
2022/08/04 11:19:59;;;;;;;9.82;1.65;;;;;;;;;;5100675;28;20565;-67
2022/08/04 11:22:26;;;;;;;7.38;2.00;;;;;;;;;;5101787;28;20024;-67
2022/08/04 11:24:52;;;;;;;8.05;1.63;;;;;;;;;;5091692;28;20032;-67
2022/08/04 11:27:29;;;;;;;6.50;1.38;;;;;;;;;;5104794;28;20050;-66
2022/08/04 11:29:54;;;;;;;11.35;2.22;;;;;;;;;;5094753;28;20024;-67
2022/08/04 11:32:22;;;;;;;16.65;1.95;;;;;;;;;;5089845;28;20030;-66
2022/08/04 11:34:51;;;;;;;7.15;1.58;;;;;;;;;;5093272;28;20043;-66
2022/08/04 11:37:17;;;;;;;6.80;1.52;;;;;;;;;;5092484;28;20012;-67
2022/08/04 11:39:42;;;;;;;9.73;2.10;;;;;;;;;;5092525;28;20022;-67
2022/08/04 11:42:19;;;;;;;11.45;1.90;;;;;;;;;;5104711;28;20016;-67
2022/08/04 11:44:51;;;;;;;22.25;1.73;;;;;;;;;;5098809;28;20024;-67
2022/08/04 11:47:31;;;;;;;20.05;2.03;;;;;;;;;;5096930;28;20024;-67
2022/08/04 11:50:19;;;;;;;8.48;1.60;;;;;;;;;;5095813;28;20034;-67
2022/08/04 11:52:44;;;;;;;22.38;2.10;;;;;;;;;;5097648;28;20024;-67
2022/08/04 11:55:11;;;;;;;19.60;2.13;;;;;;;;;;5108003;28;20081;-67
2022/08/04 11:57:37;;;;;;;15.98;1.92;;;;;;;;;;5095067;28;20024;-69
2022/08/04 12:00:08;;;;;;;15.60;2.15;;;;;;;;;;5101074;28;20019;-67
2022/08/04 12:02:39;;;;;;;23.13;2.75;;;;;;;;;;5091480;28;20023;-67
2022/08/04 12:05:06;;;;;;;11.30;1.75;;;;;;;;;;5107627;28;20111;-66
2022/08/04 12:07:49;;;;;;;12.80;1.92;;;;;;;;;;5091678;28;20048;-66
2022/08/04 12:10:33;;;;;;;23.23;1.95;;;;;;;;;;5093609;28;20020;-67
2022/08/04 12:13:08;;;;;;;7.20;1.33;;;;;;;;;;5092723;28;20036;-67
2022/08/04 12:15:44;;;;;;;25.48;2.38;;;;;;;;;;5096347;28;20020;-66
2022/08/04 12:18:17;;;;;;;15.85;2.22;;;;;;;;;;5100481;28;21187;-66
2022/08/04 12:20:47;;;;;;;15.23;2.65;;;;;;;;;;5100764;28;20032;-66
2022/08/04 12:23:23;;;;;;;14.07;1.95;;;;;;;;;;5095022;27;20194;-67
2022/08/04 12:25:51;;;;;;;16.23;1.98;;;;;;;;;;5084014;28;20485;-68
2022/08/04 12:28:36;;;;;;;10.55;1.55;;;;;;;;;;5101603;27;20385;-66
2022/08/04 12:31:06;;;;;;;8.13;1.73;;;;;;;;;;5102141;27;20027;-66
2022/08/04 12:33:48;;;;;;;15.57;1.80;;;;;;;;;;5095285;27;20016;-68
2022/08/04 12:36:32;;;;;;;8.95;2.20;;;;;;;;;;5112165;27;20037;-68
2022/08/04 12:39:03;;;;;;;7.45;1.88;;;;;;;;;;5103325;27;20480;-68
2022/08/04 12:41:32;;;;;;;8.50;2.00;;;;;;;;;;5092661;27;20023;-67
2022/08/04 12:44:03;;;;;;;5.55;2.13;;;;;;;;;;5099767;27;20035;-67
2022/08/04 12:46:28;;;;;;;8.80;1.90;;;;;;;;;;5105509;27;20034;-67
2022/08/04 12:48:59;;;;;;;15.18;2.08;;;;;;;;;;5098238;28;20024;-68
2022/08/04 12:51:25;;;;;;;23.52;2.40;;;;;;;;;;5092799;27;20032;-66
2022/08/04 12:53:50;;;;;;;15.27;2.55;;;;;;;;;;5096970;27;20020;-68
2022/08/04 12:56:16;;;;;;;8.97;1.77;;;;;;;;;;5094518;28;20027;-67
2022/08/04 12:58:42;;;;;;;7.13;1.95;;;;;;;;;;5097309;27;20269;-67
2022/08/04 13:01:10;;;;;;;11.82;2.20;;;;;;;;;;5093083;28;20491;-67
2022/08/04 13:03:41;;;;;;;5.57;2.17;;;;;;;;;;5112353;27;20037;-67
2022/08/04 13:06:07;;;;;;;4.95;2.10;;;;;;;;;;5098229;27;20052;-67
2022/08/04 13:08:34;;;;;;;4.93;2.28;;;;;;;;;;5095924;27;20016;-67
2022/08/04 13:11:00;;;;;;;12.02;1.63;;;;;;;;;;5097856;27;20055;-67
2022/08/04 13:13:27;;;;;;;11.00;1.60;;;;;;;;;;5095495;27;20507;-67
2022/08/04 13:15:54;;;;;;;10.38;1.77;;;;;;;;;;5096084;27;20045;-67
2022/08/04 13:18:20;;;;;;;13.43;1.63;;;;;;;;;;5108674;27;20502;-67
2022/08/04 13:20:45;;;;;;;2.63;1.48;;;;;;;;;;5100562;27;20110;-67
2022/08/04 13:23:13;;;;;;;5.32;1.52;;;;;;;;;;5104550;27;20091;-67
2022/08/04 13:25:42;;;;;;;8.35;1.52;;;;;;;;;;5108820;27;20058;-67
2022/08/04 13:28:07;;;;;;;;;;;;;;;;;;5102496;27;20031;-67
2022/08/04 13:30:33;;;;;;;6.75;1.60;;;;;;;;;;5101291;27;19908;-67
2022/08/04 13:33:02;;;;;;;7.50;1.90;;;;;;;;;;5105634;27;20643;-67
2022/08/04 13:35:28;;;;;;;8.88;2.15;;;;;;;;;;5087530;28;20020;-67
2022/08/04 13:37:53;;;;;;;8.32;2.20;;;;;;;;;;5095818;28;20391;-67
2022/08/04 13:40:20;;;;;;;8.27;1.80;;;;;;;;;;5100699;27;20031;-67
2022/08/04 13:42:46;;;;;;;6.47;1.88;;;;;;;;;;5103769;27;20042;-67
2022/08/04 13:45:12;;;;;;;8.02;1.92;;;;;;;;;;5098196;27;20065;-67
2022/08/04 13:47:39;;;;;;;7.18;2.35;;;;;;;;;;5105034;27;20026;-66
2022/08/04 13:50:13;;;;;;;14.90;2.05;;;;;;;;;;5098662;28;20103;-66
2022/08/04 13:52:40;;;;;;;7.07;2.08;;;;;;;;;;5089392;28;20024;-66
2022/08/04 13:55:05;;;;;;;5.15;1.65;;;;;;;;;;5095398;27;20072;-66
2022/08/04 13:57:32;;;;;;;9.10;2.10;;;;;;;;;;5106739;27;20023;-66
2022/08/04 14:00:01;;;;;;;8.68;2.10;;;;;;;;;;5098202;27;20020;-67
2022/08/04 14:02:45;;;;;;;6.32;2.17;;;;;;;;;;5096677;27;20059;-67
2022/08/04 14:05:23;;;;;;;8.27;2.10;;;;;;;;;;5093296;27;20027;-67
2022/08/04 14:07:53;;;;;;;3.60;2.00;;;;;;;;;;5099114;27;20027;-67
2022/08/04 14:10:19;;;;;;;5.93;2.13;;;;;;;;;;5103760;27;20020;-68
2022/08/04 14:12:46;;;;;;;5.63;2.13;;;;;;;;;;5097930;27;20049;-68
2022/08/04 14:15:29;;;;;;;9.40;2.20;;;;;;;;;;5097747;27;20020;-68
2022/08/04 14:18:14;;;;;;;12.40;1.80;;;;;;;;;;5097954;27;20028;-67
2022/08/04 14:20:56;;;;;;;12.05;2.20;;;;;;;;;;5093460;27;20024;-69
2022/08/04 14:23:21;;;;;;;6.90;1.83;;;;;;;;;;5096577;27;20023;-66
2022/08/04 14:25:46;;;;;;;5.77;1.77;;;;;;;;;;5109178;27;20020;-68
2022/08/04 14:28:11;;;;;;;9.43;1.90;;;;;;;;;;5100142;27;20475;-68
2022/08/04 14:30:36;;;;;;;16.00;2.93;;;;;;;;;;5107796;27;20741;-68
2022/08/04 14:33:06;;;;;;;11.83;1.90;;;;;;;;;;5099871;27;20115;-68
2022/08/04 14:35:32;;;;;;;3.40;1.55;;;;;;;;;;5113620;27;20360;-67
2022/08/04 14:37:59;;;;;;;13.13;2.20;;;;;;;;;;5095611;27;20020;-67
2022/08/04 14:40:31;;;;;;;11.98;1.55;;;;;;;;;;5099184;28;20027;-67
2022/08/04 14:42:57;;;;;;;8.15;1.80;;;;;;;;;;5096596;27;20024;-67
2022/08/04 14:45:29;;;;;;;12.13;2.38;;;;;;;;;;5096630;27;20379;-67
2022/08/04 14:47:55;;;;;;;6.13;1.88;;;;;;;;;;5108935;27;20015;-67
2022/08/04 14:50:31;;;;;;;11.93;1.70;;;;;;;;;;5104102;27;20015;-67
2022/08/04 14:53:10;;;;;;;9.27;1.95;;;;;;;;;;5104722;27;20031;-67
2022/08/04 14:55:36;;;;;;;14.33;1.90;;;;;;;;;;5099535;27;20011;-67
2022/08/04 14:58:02;;;;;;;7.68;2.00;;;;;;;;;;5092528;27;20090;-67
2022/08/04 15:00:32;;;;;;;3.55;1.52;;;;;;;;;;5092356;27;20094;-66
2022/08/04 15:03:02;;;;;;;6.85;1.75;;;;;;;;;;5089550;28;20023;-65
2022/08/04 15:05:28;;;;;;;8.63;1.88;;;;;;;;;;5103793;28;20016;-66